Time;durP1;ratioP1;P1;durP2;ratioP2;P2;SDS_P1;SDS_P2;PMS_P1;PMS_P2;Temp;Humidity;BMP_temperature;BMP_pressure;BME280_temperature;BME280_humidity;BME280_pressure;Samples;Min_cycle;Max_cycle;Signal;HPM_P1;HPM_P2
2022/12/23 00:01:58;;;;;;;16.97;7.90;;;10.40;99.90;;;;;;2617088;54;20515;-80
2022/12/23 00:07:45;;;;;;;19.07;8.40;;;10.50;99.90;;;;;;2617738;54;20938;-80
2022/12/23 00:19:39;;;;;;;16.37;8.47;;;10.50;99.90;;;;;;2618155;54;20879;-80
2022/12/23 00:31:33;;;;;;;20.83;9.73;;;10.50;99.90;;;;;;2617983;39;20690;-78
2022/12/23 00:37:21;;;;;;;17.83;9.77;;;10.60;99.90;;;;;;2616726;54;20150;-78
2022/12/23 00:43:09;;;;;;;17.70;10.40;;;10.50;99.90;;;;;;2617236;54;20176;-78
2022/12/23 00:55:03;;;;;;;18.33;8.00;;;10.50;99.90;;;;;;2616569;54;20427;-78
2022/12/23 00:57:29;;;;;;;22.70;7.97;;;10.50;99.90;;;;;;2614981;47;20435;-80
2022/12/23 00:59:55;;;;;;;20.67;8.70;;;10.40;99.90;;;;;;2616132;47;21012;-79
2022/12/23 01:05:44;;;;;;;20.80;8.40;;;10.40;99.90;;;;;;2616786;54;20130;-79
2022/12/23 01:11:32;;;;;;;23.47;8.97;;;10.30;99.90;;;;;;2615963;54;20415;-79
2022/12/23 01:17:20;;;;;;;16.90;9.07;;;10.30;99.90;;;;;;2615865;54;20138;-79
2022/12/23 01:23:07;;;;;;;19.60;8.60;;;10.20;99.90;;;;;;2616526;54;20146;-81
2022/12/23 01:28:56;;;;;;;18.63;7.07;;;10.10;99.90;;;;;;2616482;54;20170;-77
2022/12/23 01:34:44;;;;;;;14.50;8.97;;;10.10;99.90;;;;;;2616036;54;20391;-78
2022/12/23 01:40:36;;;;;;;21.43;11.73;;;10.20;99.90;;;;;;2616620;54;20175;-78
2022/12/23 01:46:24;;;;;;;15.00;10.37;;;10.20;99.90;;;;;;2615827;54;20387;-77
2022/12/23 01:52:13;;;;;;;16.20;11.83;;;10.20;99.90;;;;;;2616315;39;20558;-78
2022/12/23 02:27:12;;;;;;;21.03;12.93;;;10.40;99.90;;;;;;2615639;54;20426;-78
2022/12/23 02:46:17;;;;;;;33.77;14.10;;;10.50;99.90;;;;;;2617171;46;20383;-79
2022/12/23 02:52:11;;;;;;;21.67;13.23;;;10.50;99.90;;;;;;2617029;54;20419;-80
2022/12/23 03:02:01;;;;;;;21.60;14.13;;;10.50;99.90;;;;;;2618201;54;20511;-83
2022/12/23 03:07:53;;;;;;;21.93;14.77;;;10.40;99.90;;;;;;2621385;54;20403;-83
2022/12/23 03:14:18;;;;;;;25.93;15.10;;;10.30;99.90;;;;;;2620160;54;20407;-83
2022/12/23 03:20:16;;;;;;;22.10;13.30;;;10.20;99.90;;;;;;2619751;54;20435;-83
2022/12/23 03:39:25;;;;;;;20.17;12.40;;;10.40;99.90;;;;;;2616189;54;20434;-82
2022/12/23 03:45:18;;;;;;;22.50;14.83;;;10.40;99.90;;;;;;2616029;54;20392;-80
2022/12/23 03:51:13;;;;;;;25.50;13.30;;;10.40;99.90;;;;;;2616779;39;20768;-79
2022/12/23 03:57:04;;;;;;;24.47;15.27;;;10.40;99.90;;;;;;2616326;54;20408;-79
2022/12/23 04:06:19;;;;;;;21.90;13.57;;;10.40;99.90;;;;;;2616418;54;20430;-81
2022/12/23 04:12:07;;;;;;;21.50;14.40;;;10.30;99.90;;;;;;2616085;54;20395;-78
2022/12/23 04:17:56;;;;;;;27.03;17.10;;;10.40;99.90;;;;;;2615836;46;20399;-80
2022/12/23 04:23:44;;;;;;;23.33;15.57;;;10.30;99.90;;;;;;2616598;54;20371;-79
2022/12/23 04:29:32;;;;;;;24.07;16.77;;;10.30;99.90;;;;;;2616883;54;20262;-79
2022/12/23 04:35:20;;;;;;;26.87;16.20;;;10.30;99.90;;;;;;2616556;54;20267;-79
2022/12/23 04:41:09;;;;;;;29.53;16.70;;;10.30;99.90;;;;;;2617287;54;20418;-80
2022/12/23 04:46:56;;;;;;;22.07;13.70;;;10.30;99.90;;;;;;2616824;54;20407;-81
2022/12/23 04:52:44;;;;;;;28.60;18.10;;;10.30;99.90;;;;;;2616669;54;20122;-80
2022/12/23 04:58:32;;;;;;;24.80;14.87;;;10.30;99.90;;;;;;2616780;54;20691;-80
2022/12/23 05:01:48;;;;;;;23.73;15.20;;;10.30;99.90;;;;;;2616009;54;20419;-79
2022/12/23 05:04:13;;;;;;;23.57;13.67;;;10.30;99.90;;;;;;2616130;54;20151;-79
2022/12/23 05:10:02;;;;;;;20.87;14.60;;;10.20;99.90;;;;;;2617031;54;20231;-79
2022/12/23 05:15:51;;;;;;;27.33;15.13;;;10.20;99.90;;;;;;2616201;54;20231;-79
2022/12/23 05:21:39;;;;;;;24.63;14.10;;;10.20;99.90;;;;;;2616581;54;20423;-82
2022/12/23 05:27:30;;;;;;;27.70;17.13;;;10.20;99.90;;;;;;2623448;54;20138;-84
2022/12/23 05:33:17;;;;;;;21.77;14.70;;;10.20;99.90;;;;;;2618847;54;20534;-82
2022/12/23 05:39:06;;;;;;;21.03;12.57;;;10.10;99.90;;;;;;2616564;54;20130;-79
2022/12/23 05:44:53;;;;;;;20.97;12.13;;;10.10;99.90;;;;;;2615644;46;20398;-79
2022/12/23 05:50:41;;;;;;;15.30;8.90;;;10.10;99.90;;;;;;2616449;54;20146;-78
2022/12/23 05:56:29;;;;;;;18.30;10.90;;;10.20;99.90;;;;;;2615348;54;20127;-79
2022/12/23 06:06:16;;;;;;;21.03;11.83;;;10.20;99.90;;;;;;2617285;54;20379;-83
2022/12/23 06:12:04;;;;;;;23.90;15.43;;;10.10;99.90;;;;;;2615696;54;20383;-79
2022/12/23 06:17:54;;;;;;;29.57;16.00;;;10.20;99.90;;;;;;2615622;54;20555;-80
2022/12/23 06:23:41;;;;;;;25.83;17.10;;;10.20;99.90;;;;;;2615818;54;20951;-79
2022/12/23 06:29:29;;;;;;;25.83;17.13;;;10.20;99.90;;;;;;2615591;54;20134;-80
2022/12/23 06:35:17;;;;;;;26.73;15.23;;;10.10;99.90;;;;;;2615615;54;20178;-80
2022/12/23 06:41:06;;;;;;;27.17;16.57;;;10.10;99.90;;;;;;2616544;54;20168;-81
2022/12/23 06:46:54;;;;;;;26.07;16.23;;;10.00;99.90;;;;;;2616553;54;20512;-80
2022/12/23 06:52:41;;;;;;;24.10;16.23;;;10.00;99.90;;;;;;2616334;54;20150;-81
2022/12/23 06:58:29;;;;;;;30.30;17.10;;;10.10;99.90;;;;;;2613562;54;20157;-80
2022/12/23 07:04:28;;;;;;;33.47;16.27;;;10.10;99.90;;;;;;2612905;47;20490;-79
2022/12/23 07:10:16;;;;;;;37.33;20.23;;;10.10;99.90;;;;;;2614074;54;20159;-83
2022/12/23 07:16:07;;;;;;;29.13;19.40;;;10.10;99.90;;;;;;2611966;54;20126;-79
2022/12/23 07:19:10;;;;;;;41.47;20.90;;;10.10;99.90;;;;;;2612370;54;20411;-81
2022/12/23 07:21:37;;;;;;;32.33;19.10;;;10.20;99.90;;;;;;2611075;54;20419;-81
2022/12/23 07:27:24;;;;;;;27.33;17.00;;;10.10;99.90;;;;;;2613968;54;20422;-80
2022/12/23 07:33:11;;;;;;;35.63;21.03;;;10.10;99.90;;;;;;2613004;54;20171;-80
2022/12/23 07:38:59;;;;;;;34.17;19.10;;;10.10;99.90;;;;;;2614501;39;20537;-80
2022/12/23 07:44:46;;;;;;;34.67;18.07;;;10.10;99.90;;;;;;2615199;54;20407;-79
2022/12/23 07:50:35;;;;;;;31.33;19.07;;;10.10;99.90;;;;;;2614414;54;20150;-81
2022/12/23 07:56:24;;;;;;;27.73;13.60;;;10.10;99.90;;;;;;2614271;54;20418;-79
2022/12/23 08:06:18;;;;;;;41.27;20.83;;;10.10;99.90;;;;;;2615588;54;20488;-79
2022/12/23 08:12:06;;;;;;;41.57;20.20;;;10.10;99.90;;;;;;2614455;54;20411;-78
2022/12/23 08:17:55;;;;;;;33.47;19.10;;;10.10;99.90;;;;;;2615822;54;20133;-79
2022/12/23 08:20:20;;;;;;;35.10;18.10;;;10.10;99.90;;;;;;2614257;54;20443;-79
2022/12/23 08:22:46;;;;;;;39.80;18.63;;;10.10;99.90;;;;;;2615929;54;21063;-80
2022/12/23 08:28:36;;;;;;;41.47;21.10;;;10.10;99.90;;;;;;2617950;54;20143;-80
2022/12/23 08:34:24;;;;;;;35.37;17.73;;;10.10;99.90;;;;;;2617534;54;20398;-81
2022/12/23 08:40:13;;;;;;;24.70;13.80;;;10.10;99.90;;;;;;2617815;54;20146;-80
2022/12/23 08:46:00;;;;;;;30.67;17.53;;;10.00;99.90;;;;;;2617618;54;20953;-81
2022/12/23 08:51:48;;;;;;;28.20;16.10;;;10.00;99.90;;;;;;2616694;46;20154;-79
2022/12/23 08:57:36;;;;;;;44.37;23.57;;;10.10;99.90;;;;;;2617057;54;20138;-79
2022/12/23 09:06:46;;;;;;;30.70;15.60;;;10.00;99.90;;;;;;2616892;54;20415;-78
2022/12/23 09:12:33;;;;;;;25.43;14.97;;;10.10;99.90;;;;;;2618087;39;20531;-79
2022/12/23 09:18:21;;;;;;;27.03;16.77;;;10.10;99.90;;;;;;2616427;54;20194;-78
2022/12/23 09:24:09;;;;;;;30.27;14.10;;;10.10;99.90;;;;;;2615834;54;20170;-78
2022/12/23 09:29:57;;;;;;;34.00;14.97;;;10.10;99.90;;;;;;2616050;54;20169;-78
2022/12/23 09:35:45;;;;;;;27.47;14.60;;;10.20;99.90;;;;;;2615451;54;20166;-78
2022/12/23 09:38:10;;;;;;;26.77;13.03;;;10.20;99.90;;;;;;2615683;39;20827;-80
2022/12/23 09:40:38;;;;;;;24.53;14.73;;;10.20;99.90;;;;;;2615446;47;20479;-80
2022/12/23 09:46:31;;;;;;;32.17;15.33;;;10.20;99.90;;;;;;2616617;54;20499;-78
2022/12/23 09:52:25;;;;;;;24.10;13.97;;;10.20;99.90;;;;;;2616265;54;20371;-77
2022/12/23 10:02:18;;;;;;;27.37;14.33;;;10.10;99.90;;;;;;2616750;54;20419;-79
2022/12/23 10:05:21;;;;;;;29.77;14.90;;;10.20;99.90;;;;;;2616529;39;20967;-77
2022/12/23 10:11:31;;;;;;;28.43;16.07;;;10.10;99.90;;;;;;2616520;54;20380;-79
2022/12/23 10:17:29;;;;;;;26.77;15.30;;;10.20;99.90;;;;;;2614111;54;20439;-80
2022/12/23 10:29:46;;;;;;;26.43;15.13;;;10.20;99.90;;;;;;2614920;54;20399;-78
2022/12/23 10:35:45;;;;;;;26.43;13.63;;;10.30;99.90;;;;;;2615112;54;20199;-79
2022/12/23 10:38:35;;;;;;;23.13;14.63;;;10.30;99.90;;;;;;2613843;54;20417;-79
2022/12/23 10:54:32;;;;;;;19.50;13.47;;;10.30;99.90;;;;;;2616233;54;20405;-78
2022/12/23 11:00:22;;;;;;;24.53;12.57;;;10.50;99.90;;;;;;2616413;54;20432;-78
2022/12/23 11:06:11;;;;;;;13.90;10.07;;;10.50;99.90;;;;;;2615059;54;20423;-78
2022/12/23 11:12:06;;;;;;;24.73;14.30;;;10.50;99.90;;;;;;2614508;54;20495;-81
2022/12/23 11:14:56;;;;;;;22.33;10.47;;;10.50;99.90;;;;;;2615611;46;20439;-78
2022/12/23 11:17:27;;;;;;;19.50;11.40;;;10.50;99.90;;;;;;2614280;54;20404;-78
2022/12/23 11:23:27;;;;;;;20.63;11.83;;;10.50;99.90;;;;;;2615381;54;20402;-78
2022/12/23 11:35:34;;;;;;;19.47;13.70;;;10.90;99.90;;;;;;2615107;54;20395;-78
2022/12/23 11:41:35;;;;;;;16.37;12.40;;;10.90;99.90;;;;;;2613653;54;20415;-78
2022/12/23 11:53:42;;;;;;;16.03;13.17;;;10.60;99.90;;;;;;2614412;54;20411;-79
2022/12/23 12:09:23;;;;;;;19.50;12.47;;;10.50;99.90;;;;;;2615137;54;20391;-79
2022/12/23 12:35:50;;;;;;;12.23;7.50;;;10.40;99.90;;;;;;2615052;54;21010;-78
2022/12/23 13:18:48;;;;;;;9.63;6.60;;;10.20;99.90;;;;;;2617299;39;20798;-82
2022/12/23 13:25:47;;;;;;;11.60;6.70;;;10.10;99.90;;;;;;2617478;54;20478;-81
2022/12/23 13:31:37;;;;;;;12.73;8.77;;;10.00;99.90;;;;;;2615861;54;21000;-80
2022/12/23 14:07:18;;;;;;;10.80;6.90;;;9.90;99.90;;;;;;2622394;54;20392;-84
2022/12/23 14:13:07;;;;;;;9.73;7.67;;;9.90;99.90;;;;;;2620222;54;20445;-82
2022/12/23 14:32:29;;;;;;;8.57;4.70;;;9.70;99.90;;;;;;2616371;54;20951;-82
2022/12/23 14:44:36;;;;;;;8.13;3.50;;;9.60;99.90;;;;;;2620256;54;20407;-82
2022/12/23 14:56:46;;;;;;;5.60;3.80;;;9.50;99.90;;;;;;2619448;54;20480;-81
2022/12/23 15:02:37;;;;;;;4.10;3.30;;;9.60;99.90;;;;;;2619005;54;20177;-80
2022/12/23 15:19:25;;;;;;;4.97;3.50;;;9.50;99.90;;;;;;2620395;54;20383;-83
2022/12/23 15:25:19;;;;;;;7.40;3.40;;;9.60;99.90;;;;;;2619867;54;21010;-81
2022/12/23 15:42:04;;;;;;;4.63;3.20;;;9.70;99.90;;;;;;2615491;54;20426;-81
2022/12/23 15:47:52;;;;;;;5.87;4.20;;;9.80;99.90;;;;;;2617549;54;20423;-82
2022/12/23 15:53:43;;;;;;;7.57;6.60;;;10.20;99.90;;;;;;2613926;54;20415;-80
2022/12/23 15:59:36;;;;;;;5.83;4.67;;;10.50;99.90;;;;;;2614029;54;20499;-80
2022/12/23 16:15:32;;;;;;;8.43;6.50;;;11.60;99.90;;;;;;2614166;54;20394;-79
2022/12/23 16:21:23;;;;;;;9.77;7.47;;;11.80;99.90;;;;;;2615276;54;20432;-80
2022/12/23 16:27:18;;;;;;;9.70;8.40;;;12.00;99.90;;;;;;2617180;54;20380;-82
2022/12/23 16:33:30;;;;;;;10.47;8.70;;;11.90;99.90;;;;;;2618789;54;20396;-81
2022/12/23 16:39:21;;;;;;;11.53;10.20;;;11.80;99.90;;;;;;2616906;54;20462;-81
2022/12/23 16:45:12;;;;;;;11.97;10.77;;;11.80;99.90;;;;;;2615875;54;20406;-80
2022/12/23 16:51:06;;;;;;;12.20;10.40;;;11.60;99.90;;;;;;2617189;54;20376;-80
2022/12/23 16:56:53;;;;;;;23.53;19.67;;;11.60;99.90;;;;;;2617558;54;20402;-80
2022/12/23 17:02:47;;;;;;;13.00;10.30;;;11.40;99.90;;;;;;2617704;39;20768;-79
2022/12/23 17:08:35;;;;;;;16.47;10.40;;;11.40;99.90;;;;;;2617394;54;20411;-78
2022/12/23 17:14:24;;;;;;;11.33;9.37;;;11.40;99.90;;;;;;2617021;54;20266;-80
2022/12/23 17:20:12;;;;;;;9.77;8.77;;;11.60;99.90;;;;;;2617575;54;20443;-79
2022/12/23 17:26:00;;;;;;;17.57;7.53;;;11.70;99.90;;;;;;2623580;54;20435;-86
2022/12/23 17:31:49;;;;;;;11.17;9.27;;;11.90;99.90;;;;;;2628903;54;20126;-84
2022/12/23 17:37:39;;;;;;;11.57;9.37;;;12.00;99.90;;;;;;2621980;54;20422;-84
2022/12/23 17:43:27;;;;;;;9.63;8.53;;;12.00;99.90;;;;;;2617859;54;20391;-84
2022/12/23 17:49:14;;;;;;;10.17;7.50;;;12.00;99.90;;;;;;2616965;54;20134;-83
2022/12/23 17:55:03;;;;;;;12.40;8.43;;;11.90;99.90;;;;;;2617960;54;20234;-77
2022/12/23 18:00:50;;;;;;;11.10;7.90;;;11.80;99.90;;;;;;2617855;39;20783;-79
2022/12/23 18:04:07;;;;;;;9.23;6.00;;;11.80;99.90;;;;;;2618700;46;20457;-84
2022/12/23 18:06:33;;;;;;;11.53;7.70;;;11.80;99.90;;;;;;2623321;54;20419;-85
2022/12/23 18:18:47;;;;;;;14.97;5.87;;;12.00;99.90;;;;;;2624857;54;20541;-82
2022/12/23 18:24:34;;;;;;;14.13;5.93;;;12.10;99.90;;;;;;2623688;54;20150;-81
2022/12/23 18:30:23;;;;;;;12.50;5.20;;;12.30;99.90;;;;;;2621389;54;20123;-78
2022/12/23 18:42:43;;;;;;;13.23;6.70;;;12.20;99.90;;;;;;2615054;54;20431;-78
2022/12/23 18:48:30;;;;;;;21.03;4.83;;;12.20;99.90;;;;;;2613852;54;20137;-77
2022/12/23 18:54:20;;;;;;;17.10;8.93;;;12.20;99.90;;;;;;2613425;54;20158;-80
2022/12/23 19:00:13;;;;;;;12.50;3.63;;;12.20;99.90;;;;;;2614185;54;20375;-79
2022/12/23 19:09:23;;;;;;;15.60;4.80;;;12.10;99.90;;;;;;2615804;54;20523;-80
2022/12/23 19:15:12;;;;;;;18.73;6.47;;;12.20;99.90;;;;;;2615221;54;20392;-80
2022/12/23 19:21:03;;;;;;;16.87;5.70;;;12.10;99.90;;;;;;2616839;39;20816;-80
2022/12/23 19:26:51;;;;;;;22.20;5.60;;;12.20;99.90;;;;;;2616485;54;20419;-80
2022/12/23 19:32:39;;;;;;;12.17;5.07;;;12.20;99.90;;;;;;2616345;54;20130;-80
2022/12/23 19:38:27;;;;;;;16.67;6.30;;;12.20;99.90;;;;;;2616917;54;20402;-79
2022/12/23 19:44:15;;;;;;;26.67;6.80;;;12.20;99.90;;;;;;2616933;54;20678;-81
2022/12/23 19:50:05;;;;;;;21.13;6.47;;;12.20;99.90;;;;;;2616741;54;20700;-79
2022/12/23 19:56:01;;;;;;;18.10;5.30;;;12.20;99.90;;;;;;2615319;39;20775;-80
2022/12/23 20:01:49;;;;;;;38.57;6.13;;;12.10;99.90;;;;;;2618897;54;20403;-80
2022/12/23 20:07:54;;;;;;;20.83;5.40;;;12.10;99.90;;;;;;2618735;39;20651;-80
2022/12/23 20:13:41;;;;;;;12.27;4.27;;;12.10;99.90;;;;;;2616925;54;20199;-80
2022/12/23 20:19:28;;;;;;;16.53;4.40;;;12.10;99.90;;;;;;2617722;54;20122;-80
2022/12/23 20:25:15;;;;;;;11.43;4.40;;;12.10;99.90;;;;;;2617005;54;20173;-75
2022/12/23 20:37:38;;;;;;;22.20;7.30;;;11.80;99.90;;;;;;2613973;54;20415;-75
2022/12/23 20:43:25;;;;;;;13.60;4.97;;;12.00;99.90;;;;;;2615217;54;20658;-76
2022/12/23 20:49:12;;;;;;;14.80;5.37;;;11.90;99.90;;;;;;2616446;54;20951;-74
2022/12/23 20:55:00;;;;;;;17.97;5.07;;;11.90;99.90;;;;;;2615858;54;20122;-75
2022/12/23 21:00:48;;;;;;;13.13;5.40;;;12.00;99.90;;;;;;2614044;54;20242;-75
2022/12/23 21:09:58;;;;;;;11.63;5.10;;;12.00;99.90;;;;;;2616093;54;20976;-75
2022/12/23 21:15:46;;;;;;;17.07;7.73;;;11.90;99.90;;;;;;2615416;54;20123;-75
2022/12/23 21:21:34;;;;;;;14.90;4.80;;;11.80;99.90;;;;;;2616085;54;20155;-76
2022/12/23 21:27:22;;;;;;;10.27;4.10;;;11.90;99.90;;;;;;2615883;54;20425;-76
2022/12/23 21:33:10;;;;;;;19.60;5.47;;;11.60;99.90;;;;;;2617622;54;20165;-82
2022/12/23 21:38:58;;;;;;;18.77;6.57;;;11.20;99.90;;;;;;2617421;54;20139;-84
2022/12/23 21:44:46;;;;;;;15.93;5.93;;;11.30;99.90;;;;;;2617676;39;20504;-83
2022/12/23 21:47:12;;;;;;;23.80;6.60;;;11.30;99.90;;;;;;2616027;54;20428;-85
2022/12/23 21:49:41;;;;;;;19.73;6.80;;;11.30;99.90;;;;;;2616760;54;20163;-84
2022/12/23 21:55:28;;;;;;;19.00;6.53;;;11.30;99.90;;;;;;2615902;54;20367;-82
2022/12/23 22:01:18;;;;;;;15.43;5.40;;;11.40;99.90;;;;;;2616591;54;20150;-81
2022/12/23 22:10:28;;;;;;;23.67;4.80;;;11.40;99.90;;;;;;2624006;54;20431;-83
2022/12/23 22:16:19;;;;;;;22.27;5.90;;;11.40;99.90;;;;;;2623872;54;20169;-81
2022/12/23 22:22:07;;;;;;;14.50;5.33;;;11.30;99.90;;;;;;2621851;54;20415;-81
2022/12/23 22:27:55;;;;;;;18.63;4.43;;;11.20;99.90;;;;;;2623217;54;20149;-80
2022/12/23 22:33:43;;;;;;;12.20;4.70;;;11.30;99.90;;;;;;2622858;39;20288;-82
2022/12/23 22:39:30;;;;;;;18.40;4.33;;;11.30;99.90;;;;;;2621013;54;20387;-80
2022/12/23 22:45:18;;;;;;;18.33;5.20;;;11.40;99.90;;;;;;2617258;54;20174;-80
2022/12/23 22:57:38;;;;;;;20.37;6.53;;;11.40;99.90;;;;;;2615332;54;20432;-81
2022/12/23 23:03:26;;;;;;;26.63;5.90;;;11.30;99.90;;;;;;2615495;39;20556;-76
2022/12/23 23:13:31;;;;;;;10.50;4.70;;;11.40;99.90;;;;;;2617280;54;20441;-78
2022/12/23 23:19:19;;;;;;;15.30;4.33;;;11.50;99.90;;;;;;2614638;54;20423;-79
2022/12/23 23:25:06;;;;;;;10.80;4.30;;;11.40;99.90;;;;;;2613821;39;20821;-79
2022/12/23 23:30:54;;;;;;;15.13;5.17;;;11.50;99.90;;;;;;2615276;54;20496;-79
2022/12/23 23:36:42;;;;;;;15.00;5.50;;;11.40;99.90;;;;;;2616396;54;20126;-79
2022/12/23 23:42:29;;;;;;;13.30;5.37;;;11.60;99.90;;;;;;2615640;54;20138;-78
2022/12/23 23:48:18;;;;;;;10.73;3.87;;;11.50;99.90;;;;;;2616499;31;20652;-80
2022/12/23 23:54:07;;;;;;;13.80;4.73;;;11.20;99.90;;;;;;2616428;54;20390;-79
2022/12/23 23:59:54;;;;;;;9.87;4.60;;;11.20;99.90;;;;;;2616752;54;20391;-79
